Time;durP1;ratioP1;P1;durP2;ratioP2;P2;SDS_P1;SDS_P2;PMS_P1;PMS_P2;Temp;Humidity;BMP_temperature;BMP_pressure;BME280_temperature;BME280_humidity;BME280_pressure;Samples;Min_cycle;Max_cycle;Signal;HPM_P1;HPM_P2
2022/02/19 00:01:09;;;;;;;0.10;0.10;;;5.40;99.90;;;;;;5119586;27;20063;-89
2022/02/19 00:03:36;;;;;;;2.72;1.00;;;5.30;99.90;;;;;;5101320;27;20544;-90
2022/02/19 00:06:03;;;;;;;0.10;0.10;;;5.30;99.90;;;;;;5128865;27;20035;-89
2022/02/19 00:08:30;;;;;;;0.10;0.10;;;5.30;99.90;;;;;;5111340;27;20046;-85
2022/02/19 00:10:56;;;;;;;0.10;0.10;;;5.30;99.90;;;;;;5117995;27;20043;-89
2022/02/19 00:13:23;;;;;;;0.10;0.10;;;5.70;99.90;;;;;;5103761;27;20039;-88
2022/02/19 00:15:50;;;;;;;0.10;0.10;;;6.00;99.90;;;;;;5112679;27;20071;-85
2022/02/19 00:18:16;;;;;;;0.10;0.10;;;5.20;99.90;;;;;;5101131;27;20031;-85
2022/02/19 00:20:43;;;;;;;0.10;0.10;;;5.30;99.90;;;;;;5100501;27;20056;-84
2022/02/19 00:23:10;;;;;;;0.10;0.10;;;5.30;99.90;;;;;;5141662;27;20077;-85
2022/02/19 00:25:37;;;;;;;0.20;0.20;;;5.30;99.90;;;;;;5122834;27;20042;-89
2022/02/19 00:28:03;;;;;;;0.10;0.10;;;5.30;99.90;;;;;;5100958;27;20407;-89
2022/02/19 00:30:30;;;;;;;0.10;0.10;;;5.30;99.90;;;;;;5112863;27;20039;-85
2022/02/19 00:32:57;;;;;;;0.10;0.10;;;5.40;99.90;;;;;;5140310;27;20031;-85
2022/02/19 00:35:23;;;;;;;0.10;0.10;;;5.70;99.90;;;;;;5121692;27;20415;-88
2022/02/19 00:37:50;;;;;;;0.10;0.10;;;5.10;99.90;;;;;;5100668;27;20046;-88
2022/02/19 00:40:17;;;;;;;0.10;0.10;;;5.00;99.90;;;;;;5135365;27;20164;-88
2022/02/19 00:42:44;;;;;;;0.10;0.10;;;4.80;99.90;;;;;;5124238;27;20035;-89
2022/02/19 00:45:10;;;;;;;0.10;0.10;;;4.70;99.90;;;;;;5117504;28;20114;-88
2022/02/19 00:47:37;;;;;;;0.10;0.10;;;4.60;99.90;;;;;;5130952;28;20086;-85
2022/02/19 00:50:04;;;;;;;0.10;0.10;;;4.40;99.90;;;;;;5119578;27;20039;-84
2022/02/19 00:52:31;;;;;;;0.10;0.10;;;4.30;99.90;;;;;;5137284;27;20053;-88
2022/02/19 00:54:58;;;;;;;0.10;0.10;;;4.30;99.90;;;;;;5122183;28;20059;-85
2022/02/19 00:57:24;;;;;;;0.10;0.10;;;4.20;99.90;;;;;;5116834;28;20067;-88
2022/02/19 00:59:51;;;;;;;0.10;0.10;;;4.10;99.90;;;;;;5117129;28;20038;-85
2022/02/19 01:02:18;;;;;;;0.10;0.10;;;4.10;99.90;;;;;;5100516;28;20035;-86
2022/02/19 01:04:45;;;;;;;0.15;0.15;;;4.10;99.90;;;;;;5110746;27;20074;-88
2022/02/19 01:07:11;;;;;;;2.45;1.17;;;4.10;99.90;;;;;;5120657;27;20411;-89
2022/02/19 01:09:38;;;;;;;0.17;0.17;;;4.10;99.90;;;;;;5110062;27;20049;-88
2022/02/19 01:12:05;;;;;;;0.10;0.10;;;4.10;99.90;;;;;;5126864;27;20046;-85
2022/02/19 01:14:32;;;;;;;0.20;0.20;;;4.10;99.90;;;;;;5143448;27;20135;-84
2022/02/19 01:16:58;;;;;;;0.10;0.10;;;4.20;99.90;;;;;;5119363;28;20039;-88
2022/02/19 01:19:25;;;;;;;0.10;0.10;;;4.10;99.90;;;;;;5100993;28;20502;-85
2022/02/19 01:21:52;;;;;;;0.10;0.10;;;4.10;99.90;;;;;;5116677;28;20039;-85
2022/02/19 01:24:20;;;;;;;0.17;0.17;;;4.20;99.90;;;;;;5123260;28;20481;-85
2022/02/19 01:26:47;;;;;;;0.15;0.15;;;4.20;99.90;;;;;;5098440;28;20100;-85
2022/02/19 01:29:13;;;;;;;0.10;0.10;;;4.20;99.90;;;;;;5118559;27;20066;-88
2022/02/19 01:31:40;;;;;;;0.10;0.10;;;4.30;99.90;;;;;;5121640;28;20043;-87
2022/02/19 01:34:07;;;;;;;0.10;0.10;;;4.30;99.90;;;;;;5116639;27;20031;-85
2022/02/19 01:36:34;;;;;;;0.10;0.10;;;5.40;99.90;;;;;;5112995;27;20039;-87
2022/02/19 01:39:00;;;;;;;0.10;0.10;;;4.30;99.90;;;;;;5130784;27;20532;-85
2022/02/19 01:41:27;;;;;;;0.10;0.10;;;4.30;99.90;;;;;;5103638;27;20073;-88
2022/02/19 01:43:54;;;;;;;0.10;0.10;;;4.40;99.90;;;;;;5122348;27;20046;-88
2022/02/19 01:46:21;;;;;;;0.10;0.10;;;4.30;99.90;;;;;;5114859;27;20130;-85
2022/02/19 01:48:47;;;;;;;0.20;0.20;;;4.40;99.90;;;;;;5140627;27;20402;-85
2022/02/19 01:51:15;;;;;;;0.10;0.10;;;4.30;99.90;;;;;;5123752;27;20114;-84
2022/02/19 01:53:42;;;;;;;0.17;0.17;;;4.30;99.90;;;;;;5122683;27;20042;-87
2022/02/19 01:56:09;;;;;;;0.10;0.10;;;4.40;99.90;;;;;;5125246;27;20129;-85
2022/02/19 01:58:37;;;;;;;0.10;0.10;;;4.90;99.90;;;;;;5103541;27;20130;-85
2022/02/19 02:01:04;;;;;;;0.10;0.10;;;4.40;99.90;;;;;;5116946;28;20035;-84
2022/02/19 02:03:31;;;;;;;0.10;0.10;;;3.90;99.90;;;;;;5109799;27;20092;-87
2022/02/19 02:06:00;;;;;;;0.10;0.10;;;4.10;99.90;;;;;;5112681;27;20122;-85
2022/02/19 02:08:27;;;;;;;0.10;0.10;;;3.70;99.90;;;;;;5136753;27;20039;-87
2022/02/19 02:10:54;;;;;;;0.10;0.10;;;3.50;99.90;;;;;;5155100;27;20122;-88
2022/02/19 02:13:21;;;;;;;0.10;0.10;;;3.40;99.90;;;;;;5111777;27;20095;-88
2022/02/19 02:15:51;;;;;;;0.10;0.10;;;3.50;99.90;;;;;;5110607;27;20034;-88
2022/02/19 02:18:18;;;;;;;0.17;0.17;;;3.50;99.90;;;;;;5167201;27;20027;-85
2022/02/19 02:20:44;;;;;;;0.15;0.15;;;3.50;99.90;;;;;;5143513;27;20064;-85
2022/02/19 02:23:14;;;;;;;0.10;0.10;;;4.00;99.90;;;;;;5168542;27;20399;-88
2022/02/19 02:25:41;;;;;;;0.20;0.20;;;3.70;99.90;;;;;;5126128;27;20053;-88
2022/02/19 02:28:09;;;;;;;0.10;0.10;;;3.70;99.90;;;;;;5140464;27;20102;-85
2022/02/19 02:30:37;;;;;;;0.10;0.10;;;3.80;99.90;;;;;;5142627;27;20095;-88
2022/02/19 02:33:09;;;;;;;0.10;0.10;;;4.50;99.90;;;;;;5129647;27;20046;-85
2022/02/19 02:35:36;;;;;;;0.20;0.20;;;3.90;99.90;;;;;;5140569;27;20046;-85
2022/02/19 02:38:04;;;;;;;0.20;0.20;;;4.10;99.90;;;;;;5124054;27;20407;-88
2022/02/19 02:40:32;;;;;;;0.10;0.10;;;3.90;99.90;;;;;;5112127;27;20386;-85
2022/02/19 02:42:59;;;;;;;0.10;0.10;;;3.90;99.90;;;;;;5137625;28;20039;-89
2022/02/19 02:45:26;;;;;;;0.10;0.10;;;3.90;99.90;;;;;;5117483;27;20041;-88
2022/02/19 02:47:52;;;;;;;0.10;0.10;;;4.30;99.90;;;;;;5145177;27;20030;-88
2022/02/19 02:50:19;;;;;;;0.10;0.10;;;4.00;99.90;;;;;;5138220;27;20088;-85
2022/02/19 02:52:52;;;;;;;0.10;0.10;;;3.90;99.90;;;;;;5127167;27;20045;-85
2022/02/19 02:55:18;;;;;;;0.15;0.15;;;3.80;99.90;;;;;;5098737;27;20052;-85
2022/02/19 02:57:45;;;;;;;0.10;0.10;;;3.60;99.90;;;;;;5135006;27;20040;-87
2022/02/19 03:00:15;;;;;;;0.10;0.10;;;3.60;99.90;;;;;;5131615;27;20455;-85
2022/02/19 03:02:43;;;;;;;0.10;0.10;;;3.50;99.90;;;;;;5137566;27;20034;-85
2022/02/19 03:05:11;;;;;;;0.10;0.10;;;3.50;99.90;;;;;;5137012;27;20041;-85
2022/02/19 03:07:38;;;;;;;0.10;0.10;;;3.70;99.90;;;;;;5127382;27;20458;-87
2022/02/19 03:10:05;;;;;;;0.20;0.20;;;3.40;99.90;;;;;;5101945;27;20118;-85
2022/02/19 03:12:32;;;;;;;0.10;0.10;;;3.40;99.90;;;;;;5119026;27;20095;-88
2022/02/19 03:14:59;;;;;;;0.10;0.10;;;4.40;99.90;;;;;;5128718;27;20039;-85
2022/02/19 03:17:26;;;;;;;0.13;0.13;;;4.40;99.90;;;;;;5130119;27;20039;-85
2022/02/19 03:19:53;;;;;;;0.08;0.08;;;3.50;99.90;;;;;;5118615;27;20489;-88
2022/02/19 03:22:20;;;;;;;0.10;0.10;;;3.60;99.90;;;;;;5118974;27;20123;-88
2022/02/19 03:24:46;;;;;;;0.10;0.10;;;3.60;99.90;;;;;;5112874;27;20080;-87
2022/02/19 03:27:13;;;;;;;0.20;0.20;;;3.60;99.90;;;;;;5108611;27;20043;-87
2022/02/19 03:29:40;;;;;;;0.10;0.10;;;4.30;99.90;;;;;;5102275;27;20046;-88
2022/02/19 03:32:07;;;;;;;0.17;0.17;;;3.60;99.90;;;;;;5118269;27;20042;-85
2022/02/19 03:34:34;;;;;;;0.20;0.20;;;3.60;99.90;;;;;;5118085;27;20031;-88
2022/02/19 03:37:00;;;;;;;0.20;0.20;;;3.60;99.90;;;;;;5124602;27;20399;-85
2022/02/19 03:39:27;;;;;;;0.20;0.20;;;3.60;99.90;;;;;;5133324;27;20115;-85
2022/02/19 03:41:54;;;;;;;0.15;0.15;;;4.40;99.90;;;;;;5111548;27;20571;-85
2022/02/19 03:44:20;;;;;;;0.10;0.10;;;3.70;99.90;;;;;;5101436;27;20043;-88
2022/02/19 03:46:47;;;;;;;0.10;0.10;;;4.30;99.90;;;;;;5102767;27;20075;-88
2022/02/19 03:49:14;;;;;;;0.17;0.17;;;3.80;99.90;;;;;;5122001;27;20503;-85
2022/02/19 03:51:41;;;;;;;0.10;0.10;;;3.90;99.90;;;;;;5110840;27;20118;-85
2022/02/19 03:54:07;;;;;;;0.20;0.20;;;3.90;99.90;;;;;;5134973;27;20051;-88
2022/02/19 03:56:34;;;;;;;0.20;0.20;;;3.90;99.90;;;;;;5100329;27;20043;-85
2022/02/19 03:59:01;;;;;;;0.17;0.17;;;4.10;99.90;;;;;;5119670;27;20038;-88
2022/02/19 04:01:27;;;;;;;0.10;0.10;;;3.90;99.90;;;;;;5138164;27;20517;-88
2022/02/19 04:03:54;;;;;;;0.10;0.10;;;4.00;99.90;;;;;;5137446;27;20479;-88
2022/02/19 04:06:21;;;;;;;0.20;0.20;;;4.00;99.90;;;;;;5100910;27;20404;-87
2022/02/19 04:08:47;;;;;;;0.10;0.10;;;4.00;99.90;;;;;;5118378;27;20042;-86
2022/02/19 04:11:14;;;;;;;0.10;0.10;;;3.90;99.90;;;;;;5127143;27;20065;-87
2022/02/19 04:13:41;;;;;;;0.10;0.10;;;3.90;99.90;;;;;;5112084;27;20040;-85
2022/02/19 04:16:07;;;;;;;0.20;0.20;;;3.90;99.90;;;;;;5128189;27;20038;-87
2022/02/19 04:18:34;;;;;;;0.20;0.20;;;3.90;99.90;;;;;;5100727;27;20039;-88
2022/02/19 04:21:01;;;;;;;0.13;0.13;;;3.90;99.90;;;;;;5110473;27;20109;-85
2022/02/19 04:23:28;;;;;;;0.13;0.13;;;4.90;99.90;;;;;;5117600;27;20607;-85
2022/02/19 04:25:55;;;;;;;0.10;0.10;;;4.00;99.90;;;;;;5117291;27;20035;-84
2022/02/19 04:28:22;;;;;;;0.10;0.10;;;4.00;99.90;;;;;;5144715;27;20483;-85
2022/02/19 04:30:48;;;;;;;0.10;0.10;;;4.60;99.90;;;;;;5127081;27;20122;-85
2022/02/19 04:33:15;;;;;;;0.20;0.20;;;4.60;99.90;;;;;;5100815;27;20043;-88
2022/02/19 04:35:42;;;;;;;0.10;0.10;;;4.00;99.90;;;;;;5100054;27;20038;-85
2022/02/19 04:38:08;;;;;;;0.10;0.10;;;4.20;99.90;;;;;;5103891;27;20045;-85
2022/02/19 04:40:35;;;;;;;0.10;0.10;;;4.00;99.90;;;;;;5110794;27;20038;-85
2022/02/19 04:43:02;;;;;;;0.10;0.10;;;4.00;99.90;;;;;;5134397;27;20071;-88
2022/02/19 04:45:29;;;;;;;0.10;0.10;;;4.00;99.90;;;;;;5111157;27;20066;-88
2022/02/19 04:47:57;;;;;;;0.10;0.10;;;3.90;99.90;;;;;;5129775;27;20541;-88
2022/02/19 04:50:24;;;;;;;0.10;0.10;;;3.90;99.90;;;;;;5141747;27;20080;-86
2022/02/19 04:52:50;;;;;;;0.10;0.10;;;4.00;99.90;;;;;;5132197;27;20123;-85
2022/02/19 04:55:17;;;;;;;0.10;0.10;;;3.90;99.90;;;;;;5110016;27;20066;-85
2022/02/19 04:57:45;;;;;;;0.20;0.20;;;3.90;99.90;;;;;;5116824;28;20171;-87
2022/02/19 05:00:17;;;;;;;0.10;0.10;;;3.80;99.90;;;;;;5126993;27;20034;-88
2022/02/19 05:02:44;;;;;;;0.10;0.10;;;3.80;99.90;;;;;;5134680;27;20429;-87
2022/02/19 05:05:11;;;;;;;0.20;0.20;;;3.80;99.90;;;;;;5136688;27;20031;-87
2022/02/19 05:07:38;;;;;;;0.20;0.20;;;3.80;99.90;;;;;;5128619;27;20126;-87
2022/02/19 05:10:05;;;;;;;0.10;0.10;;;4.70;99.90;;;;;;5112613;27;20031;-87
2022/02/19 05:12:32;;;;;;;0.20;0.20;;;3.70;99.90;;;;;;5117717;28;20035;-84
2022/02/19 05:15:02;;;;;;;0.20;0.20;;;2.90;99.90;;;;;;5157669;27;20043;-86
2022/02/19 05:17:28;;;;;;;0.10;0.10;;;3.70;99.90;;;;;;5117548;27;20046;-87
2022/02/19 05:19:55;;;;;;;0.10;0.10;;;3.50;99.90;;;;;;5129348;27;20030;-87
2022/02/19 05:22:22;;;;;;;0.20;0.20;;;3.50;99.90;;;;;;5116380;27;20035;-85
2022/02/19 05:24:48;;;;;;;0.10;0.10;;;3.50;99.90;;;;;;5104089;27;20070;-85
2022/02/19 05:27:15;;;;;;;0.10;0.10;;;3.50;99.90;;;;;;5108913;27;20491;-85
2022/02/19 05:29:42;;;;;;;0.13;0.13;;;3.40;99.90;;;;;;5120875;27;20464;-85
2022/02/19 05:32:09;;;;;;;0.10;0.10;;;3.40;99.90;;;;;;5120833;27;20035;-84
2022/02/19 05:34:35;;;;;;;0.20;0.20;;;3.30;99.90;;;;;;5116212;28;20039;-85
2022/02/19 05:37:02;;;;;;;0.17;0.17;;;4.20;99.90;;;;;;5090051;27;20031;-85
2022/02/19 05:39:29;;;;;;;0.10;0.10;;;3.20;99.90;;;;;;5117006;27;20376;-85
2022/02/19 05:41:56;;;;;;;0.17;0.17;;;3.00;99.90;;;;;;5103788;27;20057;-86
2022/02/19 05:44:23;;;;;;;0.10;0.10;;;2.90;99.90;;;;;;5105758;28;20496;-87
2022/02/19 05:46:50;;;;;;;0.10;0.10;;;2.90;99.90;;;;;;5102080;27;20396;-85
2022/02/19 05:49:16;;;;;;;0.20;0.20;;;2.90;99.90;;;;;;5102923;27;20120;-88
2022/02/19 05:51:43;;;;;;;0.20;0.20;;;2.90;99.90;;;;;;5103419;27;20047;-88
2022/02/19 05:54:10;;;;;;;0.20;0.20;;;3.00;99.90;;;;;;5100675;27;20047;-86
2022/02/19 05:56:37;;;;;;;0.20;0.20;;;3.20;99.90;;;;;;5128627;27;20403;-84
2022/02/19 05:59:04;;;;;;;0.10;0.10;;;2.90;99.90;;;;;;5137180;27;20031;-85
2022/02/19 06:01:30;;;;;;;0.20;0.20;;;2.90;99.90;;;;;;5099534;28;20093;-87
2022/02/19 06:03:57;;;;;;;0.15;0.15;;;3.30;99.90;;;;;;5094541;28;20108;-84
2022/02/19 06:06:24;;;;;;;0.10;0.10;;;3.00;99.90;;;;;;5119509;27;20122;-88
2022/02/19 06:08:51;;;;;;;0.20;0.20;;;2.80;99.90;;;;;;5103360;27;20041;-87
2022/02/19 06:11:18;;;;;;;0.13;0.13;;;2.80;99.90;;;;;;5120077;27;20039;-88
2022/02/19 06:13:45;;;;;;;0.10;0.10;;;2.90;99.90;;;;;;5102973;27;20082;-85
2022/02/19 06:16:11;;;;;;;0.20;0.20;;;3.00;99.90;;;;;;5119811;27;20065;-87
2022/02/19 06:18:38;;;;;;;0.10;0.10;;;3.10;99.90;;;;;;5119742;27;20031;-87
2022/02/19 06:21:05;;;;;;;0.20;0.20;;;3.20;99.90;;;;;;5115493;28;20039;-87
2022/02/19 06:23:32;;;;;;;0.20;0.20;;;3.20;99.90;;;;;;5102702;27;20070;-87
2022/02/19 06:25:59;;;;;;;0.20;0.20;;;3.30;99.90;;;;;;5103501;27;20043;-85
2022/02/19 06:28:25;;;;;;;0.32;0.30;;;2.90;99.90;;;;;;5119083;28;20035;-87
2022/02/19 06:30:52;;;;;;;0.10;0.10;;;3.50;99.90;;;;;;5085460;27;20104;-87
2022/02/19 06:33:19;;;;;;;0.20;0.20;;;3.50;99.90;;;;;;5101413;27;20047;-87
2022/02/19 06:35:46;;;;;;;0.10;0.10;;;3.50;99.90;;;;;;5101817;27;20110;-84
2022/02/19 06:38:12;;;;;;;0.10;0.10;;;3.50;99.90;;;;;;5134084;27;20035;-85
2022/02/19 06:40:39;;;;;;;0.10;0.10;;;3.50;99.90;;;;;;5135221;27;20543;-84
2022/02/19 06:43:06;;;;;;;0.10;0.10;;;3.90;99.90;;;;;;5101286;27;20039;-84
2022/02/19 06:45:35;;;;;;;0.13;0.13;;;3.50;99.90;;;;;;5117972;27;20035;-87
2022/02/19 06:48:02;;;;;;;0.20;0.20;;;3.60;99.90;;;;;;5101783;27;20039;-84
2022/02/19 06:50:28;;;;;;;0.20;0.20;;;3.50;99.90;;;;;;5118076;27;20054;-85
2022/02/19 06:52:55;;;;;;;0.13;0.13;;;3.70;99.90;;;;;;5101810;27;20038;-84
2022/02/19 06:55:22;;;;;;;0.20;0.20;;;3.80;99.90;;;;;;5151606;27;20100;-87
2022/02/19 06:57:50;;;;;;;0.10;0.10;;;3.50;99.90;;;;;;5118483;27;20035;-86
2022/02/19 07:00:17;;;;;;;0.10;0.10;;;3.50;99.90;;;;;;5129059;27;20039;-85
2022/02/19 07:02:44;;;;;;;0.10;0.10;;;3.50;99.90;;;;;;5135056;27;20063;-87
2022/02/19 07:05:11;;;;;;;0.10;0.10;;;3.90;99.90;;;;;;5117555;27;20063;-87
2022/02/19 07:07:38;;;;;;;0.30;0.30;;;3.50;99.90;;;;;;5101565;27;20066;-87
2022/02/19 07:10:09;;;;;;;0.20;0.20;;;4.40;99.90;;;;;;5134984;27;20507;-85
2022/02/19 07:12:37;;;;;;;0.10;0.10;;;3.60;99.90;;;;;;5133250;27;20036;-84
2022/02/19 07:15:11;;;;;;;0.20;0.20;;;4.60;99.90;;;;;;5164068;27;20070;-85
2022/02/19 07:17:51;;;;;;;0.10;0.10;;;3.60;99.90;;;;;;5118606;27;20070;-88
2022/02/19 07:20:21;;;;;;;0.20;0.20;;;3.60;99.90;;;;;;5135508;27;20114;-87
2022/02/19 07:22:49;;;;;;;0.10;0.10;;;4.00;99.90;;;;;;5118481;27;20034;-88
2022/02/19 07:25:17;;;;;;;0.20;0.20;;;3.60;99.90;;;;;;5143442;27;20515;-88
2022/02/19 07:27:46;;;;;;;0.10;0.10;;;3.60;99.90;;;;;;5146864;27;20037;-88
2022/02/19 07:30:15;;;;;;;0.22;0.22;;;3.60;99.90;;;;;;5154285;27;20054;-85
2022/02/19 07:32:42;;;;;;;0.20;0.20;;;4.00;99.90;;;;;;5154704;27;20052;-88
2022/02/19 07:35:10;;;;;;;0.10;0.10;;;3.60;99.90;;;;;;5147493;27;20099;-85
2022/02/19 07:37:38;;;;;;;0.20;0.20;;;3.60;99.90;;;;;;5145151;28;20133;-86
2022/02/19 07:40:07;;;;;;;0.10;0.10;;;3.70;99.90;;;;;;5133891;27;20035;-89
2022/02/19 07:42:34;;;;;;;0.20;0.20;;;3.70;99.90;;;;;;5145414;27;20061;-89
2022/02/19 07:45:02;;;;;;;0.10;0.10;;;3.80;99.90;;;;;;5152009;27;20035;-88
2022/02/19 07:47:31;;;;;;;0.10;0.10;;;3.80;99.90;;;;;;5117951;27;20133;-88
2022/02/19 07:58:18;;;;;;;0.20;0.20;;;3.90;99.90;;;;;;5155057;27;20125;-88
2022/02/19 08:00:49;;;;;;;0.20;0.20;;;3.90;99.90;;;;;;5137007;27;20709;-86
2022/02/19 08:03:16;;;;;;;0.10;0.10;;;4.10;99.90;;;;;;5140384;27;20039;-86
2022/02/19 08:05:43;;;;;;;0.10;0.10;;;4.80;99.90;;;;;;5109092;27;20453;-86
2022/02/19 08:08:10;;;;;;;0.10;0.10;;;5.30;99.90;;;;;;5134824;27;20023;-89
2022/02/19 08:10:37;;;;;;;0.10;0.10;;;4.60;99.90;;;;;;5124252;27;20031;-86
2022/02/19 08:13:07;;;;;;;0.10;0.10;;;4.10;99.90;;;;;;5135289;27;20035;-89
2022/02/19 08:15:37;;;;;;;0.20;0.20;;;4.50;99.90;;;;;;5117532;27;20543;-86
2022/02/19 08:18:06;;;;;;;0.10;0.10;;;4.10;99.90;;;;;;5117936;27;20031;-90
2022/02/19 08:20:43;;;;;;;0.13;0.13;;;4.70;99.90;;;;;;5131769;27;20376;-89
2022/02/19 08:23:14;;;;;;;0.10;0.10;;;4.50;99.90;;;;;;5111777;27;20146;-87
2022/02/19 08:25:43;;;;;;;0.10;0.10;;;4.30;99.90;;;;;;5129818;28;20040;-88
2022/02/19 08:28:10;;;;;;;0.10;0.10;;;5.10;99.90;;;;;;5124483;27;20144;-89
2022/02/19 08:30:39;;;;;;;0.10;0.10;;;4.70;99.90;;;;;;5154845;27;20038;-88
2022/02/19 08:33:07;;;;;;;0.13;0.13;;;4.20;99.90;;;;;;5140752;27;20027;-86
2022/02/19 08:35:36;;;;;;;0.10;0.10;;;4.60;99.90;;;;;;5135225;27;20067;-91
2022/02/19 08:38:11;;;;;;;0.20;0.20;;;5.30;99.90;;;;;;5126766;27;20077;-88
2022/02/19 08:40:42;;;;;;;0.10;0.10;;;4.10;99.90;;;;;;5133203;27;20039;-92
2022/02/19 08:43:09;;;;;;;0.10;0.10;;;4.40;99.90;;;;;;5135666;27;20071;-93
2022/02/19 08:45:38;;;;;;;0.10;0.10;;;4.10;99.90;;;;;;5147175;27;20038;-93
2022/02/19 08:48:06;;;;;;;0.10;0.10;;;4.20;99.90;;;;;;5126289;27;20122;-94
2022/02/19 08:50:35;;;;;;;0.10;0.10;;;5.10;99.90;;;;;;5126746;27;20083;-87
2022/02/19 08:53:03;;;;;;;0.10;0.10;;;4.40;99.90;;;;;;5127209;27;20045;-91
2022/02/19 08:55:31;;;;;;;0.10;0.10;;;4.50;99.90;;;;;;5112160;28;20074;-86
2022/02/19 08:57:58;;;;;;;0.10;0.10;;;4.60;99.90;;;;;;5134718;27;20035;-85
2022/02/19 09:00:25;;;;;;;0.10;0.10;;;4.60;99.90;;;;;;5140605;27;20449;-88
2022/02/19 09:02:52;;;;;;;0.10;0.10;;;4.70;99.90;;;;;;5143775;27;20047;-89
2022/02/19 09:05:20;;;;;;;0.10;0.10;;;4.70;99.90;;;;;;5145413;28;20039;-86
2022/02/19 09:07:47;;;;;;;0.10;0.10;;;4.90;99.90;;;;;;5119333;28;20096;-90
2022/02/19 09:10:16;;;;;;;0.10;0.10;;;5.00;99.90;;;;;;5118272;28;20031;-91
2022/02/19 09:12:47;;;;;;;0.10;0.10;;;5.60;99.90;;;;;;5116558;28;20096;-86
2022/02/19 09:15:16;;;;;;;0.10;0.10;;;5.00;99.90;;;;;;5110087;27;20038;-90
2022/02/19 09:17:43;;;;;;;0.10;0.10;;;4.80;99.90;;;;;;5143387;27;20038;-88
2022/02/19 09:20:12;;;;;;;0.10;0.10;;;5.80;99.90;;;;;;5119923;28;20175;-86
2022/02/19 09:22:39;;;;;;;0.10;0.10;;;4.40;99.90;;;;;;5116309;28;20035;-90
2022/02/19 09:25:07;;;;;;;0.10;0.10;;;4.40;99.90;;;;;;5133837;28;20035;-90
2022/02/19 09:27:35;;;;;;;0.10;0.10;;;4.40;99.90;;;;;;5133095;28;20091;-90
2022/02/19 09:30:04;;;;;;;0.10;0.10;;;4.50;99.90;;;;;;5117733;28;20037;-90
2022/02/19 09:32:31;;;;;;;0.10;0.10;;;4.50;99.90;;;;;;5123618;27;20176;-86
2022/02/19 09:34:58;;;;;;;0.20;0.20;;;4.50;99.90;;;;;;5136824;27;20473;-90
2022/02/19 09:37:28;;;;;;;0.10;0.10;;;5.20;99.90;;;;;;5136866;28;20039;-90
2022/02/19 09:39:55;;;;;;;0.10;0.10;;;4.60;99.90;;;;;;5116411;28;20088;-90
2022/02/19 09:42:24;;;;;;;0.10;0.10;;;4.70;99.90;;;;;;5144500;28;20039;-87
2022/02/19 09:44:52;;;;;;;0.10;0.10;;;5.30;99.90;;;;;;5120808;27;20070;-90
2022/02/19 09:47:27;;;;;;;0.10;0.10;;;5.50;99.90;;;;;;5121821;27;20054;-86
2022/02/19 09:49:55;;;;;;;0.20;0.20;;;5.10;99.90;;;;;;5136536;27;20041;-90
2022/02/19 09:52:25;;;;;;;0.10;0.10;;;5.20;99.90;;;;;;5120890;28;20942;-87
2022/02/19 09:54:57;;;;;;;0.10;0.10;;;5.50;99.90;;;;;;5133333;27;20055;-91
2022/02/19 09:57:24;;;;;;;0.10;0.10;;;5.60;99.90;;;;;;5145744;28;20042;-87
2022/02/19 09:59:50;;;;;;;0.10;0.10;;;5.10;99.90;;;;;;5131727;27;20403;-92
2022/02/19 10:02:27;;;;;;;0.10;0.10;;;5.00;99.90;;;;;;5119727;27;20559;-91
2022/02/19 10:04:55;;;;;;;0.10;0.10;;;5.00;99.90;;;;;;5133427;27;20063;-90
2022/02/19 10:07:22;;;;;;;0.10;0.10;;;5.00;99.90;;;;;;5115322;27;20051;-91
2022/02/19 10:09:50;;;;;;;0.10;0.10;;;4.60;99.90;;;;;;5124604;27;20043;-91
2022/02/19 10:12:17;;;;;;;0.10;0.10;;;4.80;99.90;;;;;;5120404;27;20548;-86
2022/02/19 10:14:45;;;;;;;0.20;0.20;;;4.70;99.90;;;;;;5119517;27;20043;-87
2022/02/19 10:17:17;;;;;;;0.10;0.10;;;5.50;99.90;;;;;;5129211;27;20035;-86
2022/02/19 10:19:56;;;;;;;0.10;0.10;;;5.20;99.90;;;;;;5117113;27;20035;-86
2022/02/19 10:22:39;;;;;;;0.10;0.10;;;5.00;99.90;;;;;;5134803;27;20035;-86
2022/02/19 10:25:14;;;;;;;0.10;0.10;;;5.00;99.90;;;;;;5136825;27;20039;-85
2022/02/19 10:28:04;;;;;;;0.10;0.10;;;5.10;99.90;;;;;;5136027;27;20039;-90
2022/02/19 10:30:31;;;;;;;0.10;0.10;;;5.20;99.90;;;;;;5153032;27;20051;-90
2022/02/19 10:33:06;;;;;;;0.10;0.10;;;5.20;99.90;;;;;;5102845;27;20453;-86
2022/02/19 10:35:41;;;;;;;0.10;0.10;;;5.30;99.90;;;;;;5127240;27;20034;-90
2022/02/19 10:38:17;;;;;;;0.10;0.10;;;5.40;99.90;;;;;;5136249;27;20077;-86
2022/02/19 10:40:52;;;;;;;0.10;0.10;;;5.40;99.90;;;;;;5130262;27;20035;-91
2022/02/19 10:43:23;;;;;;;0.10;0.10;;;5.40;99.90;;;;;;5137385;27;20444;-87
2022/02/19 10:46:01;;;;;;;0.10;0.10;;;5.40;99.90;;;;;;5131171;28;20067;-87
2022/02/19 10:48:33;;;;;;;0.10;0.10;;;5.40;99.90;;;;;;5140457;27;20041;-92
2022/02/19 10:51:18;;;;;;;0.10;0.10;;;5.40;99.90;;;;;;5125264;27;20093;-91
2022/02/19 10:53:58;;;;;;;0.10;0.10;;;5.40;99.90;;;;;;5148063;27;20027;-88
2022/02/19 10:56:28;;;;;;;0.10;0.10;;;5.40;99.90;;;;;;5150253;27;20048;-91
2022/02/19 10:59:03;;;;;;;0.10;0.10;;;5.40;99.90;;;;;;5110708;27;20487;-86
2022/02/19 11:01:43;;;;;;;0.10;0.10;;;5.30;99.90;;;;;;5134973;28;20071;-89
2022/02/19 11:04:12;;;;;;;0.10;0.10;;;5.30;99.90;;;;;;5132356;28;20032;-87
2022/02/19 11:06:39;;;;;;;0.10;0.10;;;5.30;99.90;;;;;;5115909;28;20055;-92
2022/02/19 11:09:08;;;;;;;0.10;0.10;;;5.30;99.90;;;;;;5099177;28;20032;-91
2022/02/19 11:11:36;;;;;;;0.10;0.10;;;5.30;99.90;;;;;;5117790;28;20369;-92
2022/02/19 11:14:05;;;;;;;0.10;0.10;;;5.30;99.90;;;;;;5141204;27;20066;-86
2022/02/19 11:16:33;;;;;;;0.10;0.10;;;5.20;99.90;;;;;;5137574;28;20053;-87
2022/02/19 11:19:00;;;;;;;0.10;0.10;;;5.10;99.90;;;;;;5141081;27;20035;-86
2022/02/19 11:21:29;;;;;;;0.10;0.10;;;5.00;99.90;;;;;;5134431;28;20404;-86
2022/02/19 11:24:00;;;;;;;0.10;0.10;;;5.00;99.90;;;;;;5159365;27;20072;-86
2022/02/19 11:26:27;;;;;;;0.10;0.10;;;5.00;99.90;;;;;;5143226;28;20035;-86
2022/02/19 11:29:01;;;;;;;0.10;0.10;;;5.00;99.90;;;;;;5105280;27;20547;-86
2022/02/19 11:31:30;;;;;;;0.10;0.10;;;5.00;99.90;;;;;;5134782;28;20051;-86
2022/02/19 11:34:04;;;;;;;0.10;0.10;;;5.10;99.90;;;;;;5115442;28;20032;-91
2022/02/19 11:36:33;;;;;;;0.10;0.10;;;5.50;99.90;;;;;;5139778;27;20437;-91
2022/02/19 11:39:03;;;;;;;1.27;1.23;;;5.60;99.90;;;;;;5134181;28;20039;-87
2022/02/19 11:41:38;;;;;;;0.10;0.10;;;5.10;99.90;;;;;;5131847;28;20084;-85
2022/02/19 11:44:14;;;;;;;0.10;0.10;;;5.20;99.90;;;;;;5140438;27;20126;-85
2022/02/19 11:46:41;;;;;;;;;;;5.30;99.90;;;;;;5159736;27;20058;-86
2022/02/19 11:49:20;;;;;;;0.10;0.10;;;5.30;99.90;;;;;;5144677;28;19916;-94
2022/02/19 11:52:16;;;;;;;0.10;0.10;;;5.40;99.90;;;;;;5143115;27;20066;-93
2022/02/19 11:54:43;;;;;;;0.10;0.10;;;5.50;99.90;;;;;;5141806;27;20047;-95
2022/02/19 11:57:15;;;;;;;0.10;0.10;;;5.50;99.90;;;;;;5119506;27;20043;-94
2022/02/19 11:59:44;;;;;;;0.10;0.10;;;5.50;99.90;;;;;;5148524;27;20099;-94
2022/02/19 12:02:26;;;;;;;0.10;0.10;;;5.60;99.90;;;;;;5156942;27;20035;-95
2022/02/19 12:05:19;;;;;;;0.10;0.10;;;5.60;99.90;;;;;;5125409;27;20047;-93
2022/02/19 12:08:01;;;;;;;0.17;0.17;;;5.60;99.90;;;;;;5165336;27;20053;-91
2022/02/19 12:10:30;;;;;;;0.10;0.10;;;5.60;99.90;;;;;;5136600;27;20039;-90
2022/02/19 12:13:16;;;;;;;0.10;0.10;;;6.60;99.90;;;;;;5144846;27;20045;-94
2022/02/19 12:15:43;;;;;;;0.10;0.10;;;5.90;99.90;;;;;;5127472;27;20488;-94
2022/02/19 12:18:11;;;;;;;0.20;0.20;;;6.20;99.90;;;;;;5112653;27;20041;-95
2022/02/19 12:20:40;;;;;;;6.63;0.65;;;6.20;99.90;;;;;;5134836;27;20035;-90
2022/02/19 12:23:10;;;;;;;0.10;0.10;;;6.30;99.90;;;;;;5125975;27;20031;-91
2022/02/19 12:25:55;;;;;;;0.10;0.10;;;6.40;99.90;;;;;;5156116;27;20034;-90
2022/02/19 12:28:22;;;;;;;0.13;0.13;;;6.30;99.90;;;;;;5143194;28;20106;-91
2022/02/19 12:35:03;;;;;;;0.10;0.10;;;5.40;99.90;;;;;;5131446;27;20062;-93
2022/02/19 12:40:55;;;;;;;0.10;0.10;;;6.10;99.90;;;;;;5166893;27;20436;-91
2022/02/19 12:43:22;;;;;;;0.10;0.10;;;6.10;99.90;;;;;;5153711;27;20551;-91
2022/02/19 12:45:49;;;;;;;0.05;0.05;;;6.10;99.90;;;;;;5154523;27;20051;-95
2022/02/19 12:48:16;;;;;;;0.10;0.10;;;6.10;99.90;;;;;;5102732;27;20139;-96
2022/02/19 12:50:56;;;;;;;0.10;0.10;;;6.10;99.90;;;;;;5129685;27;20093;-94
2022/02/19 12:53:23;;;;;;;0.10;0.10;;;6.00;99.90;;;;;;5154655;27;20094;-95
2022/02/19 12:55:57;;;;;;;0.10;0.10;;;6.30;99.90;;;;;;5145490;27;20051;-91
2022/02/19 12:58:25;;;;;;;0.10;0.10;;;6.10;99.90;;;;;;5130955;27;20031;-91
2022/02/19 13:00:53;;;;;;;0.10;0.10;;;7.00;99.90;;;;;;5155219;27;20038;-91
2022/02/19 13:03:20;;;;;;;0.10;0.10;;;6.00;99.90;;;;;;5144523;28;20047;-91
2022/02/19 13:06:00;;;;;;;0.10;0.10;;;6.10;99.90;;;;;;5135683;28;20031;-95
2022/02/19 13:08:37;;;;;;;0.10;0.10;;;6.00;99.90;;;;;;5146203;27;20038;-89
2022/02/19 13:11:07;;;;;;;0.10;0.10;;;6.00;99.90;;;;;;5135722;28;20083;-95
2022/02/19 13:13:38;;;;;;;0.10;0.10;;;6.00;99.90;;;;;;5138802;27;20038;-95
2022/02/19 13:16:07;;;;;;;0.10;0.10;;;6.10;99.90;;;;;;5135080;27;20053;-95
2022/02/19 13:18:44;;;;;;;0.10;0.10;;;6.10;99.90;;;;;;5138967;27;20407;-95
2022/02/19 13:21:15;;;;;;;0.10;0.10;;;6.10;99.90;;;;;;5152330;28;20039;-90